sensor_id;sensor_type;location;lat;lon;timestamp;pressure;altitude;pressure_sealevel;temperature;humidity
13209;BME280;6669;42.678;23.332;2022-12-19T00:01:55;96213.59;;;-1.07;100.00
13209;BME280;6669;42.678;23.332;2022-12-19T00:04:25;96240.34;;;-0.95;100.00
13209;BME280;6669;42.678;23.332;2022-12-19T00:06:56;96223.81;;;-1.07;100.00
13209;BME280;6669;42.678;23.332;2022-12-19T00:09:24;96231.50;;;-0.86;100.00
13209;BME280;6669;42.678;23.332;2022-12-19T00:11:53;96220.31;;;-0.84;100.00
13209;BME280;6669;42.678;23.332;2022-12-19T00:14:21;96214.38;;;-0.84;100.00
13209;BME280;6669;42.678;23.332;2022-12-19T00:16:49;96227.34;;;-0.68;100.00
13209;BME280;6669;42.678;23.332;2022-12-19T00:19:17;96242.34;;;-0.60;100.00
13209;BME280;6669;42.678;23.332;2022-12-19T00:21:46;96233.59;;;-0.75;100.00
13209;BME280;6669;42.678;23.332;2022-12-19T00:24:14;96243.88;;;-0.77;100.00
13209;BME280;6669;42.678;23.332;2022-12-19T00:26:47;96244.72;;;-0.76;100.00
13209;BME280;6669;42.678;23.332;2022-12-19T00:29:15;96237.16;;;-0.79;100.00
13209;BME280;6669;42.678;23.332;2022-12-19T00:31:43;96234.22;;;-0.91;100.00
13209;BME280;6669;42.678;23.332;2022-12-19T00:34:12;96240.50;;;-0.77;100.00
13209;BME280;6669;42.678;23.332;2022-12-19T00:36:40;96236.59;;;-0.86;100.00
13209;BME280;6669;42.678;23.332;2022-12-19T00:39:09;96246.81;;;-0.86;100.00
13209;BME280;6669;42.678;23.332;2022-12-19T00:41:39;96248.19;;;-0.79;100.00
13209;BME280;6669;42.678;23.332;2022-12-19T00:44:09;96243.69;;;-0.72;100.00
13209;BME280;6669;42.678;23.332;2022-12-19T00:46:38;96233.56;;;-0.74;100.00
13209;BME280;6669;42.678;23.332;2022-12-19T00:49:06;96243.94;;;-0.58;100.00
13209;BME280;6669;42.678;23.332;2022-12-19T00:51:35;96237.75;;;-0.73;100.00
13209;BME280;6669;42.678;23.332;2022-12-19T00:54:04;96243.09;;;-0.79;100.00
13209;BME280;6669;42.678;23.332;2022-12-19T00:56:35;96248.97;;;-0.77;100.00
13209;BME280;6669;42.678;23.332;2022-12-19T00:59:04;96253.31;;;-0.79;100.00
13209;BME280;6669;42.678;23.332;2022-12-19T01:01:35;96244.97;;;-0.83;100.00
13209;BME280;6669;42.678;23.332;2022-12-19T01:04:05;96252.97;;;-0.70;100.00
13209;BME280;6669;42.678;23.332;2022-12-19T01:06:53;96251.44;;;-0.74;100.00
13209;BME280;6669;42.678;23.332;2022-12-19T01:09:28;96243.09;;;-0.79;100.00
13209;BME280;6669;42.678;23.332;2022-12-19T01:11:58;96254.66;;;-0.70;100.00
13209;BME280;6669;42.678;23.332;2022-12-19T01:14:44;96258.69;;;-0.64;100.00
13209;BME280;6669;42.678;23.332;2022-12-19T01:17:12;96251.88;;;-0.64;100.00
13209;BME280;6669;42.678;23.332;2022-12-19T01:19:40;96259.19;;;-0.56;100.00
13209;BME280;6669;42.678;23.332;2022-12-19T01:22:10;96262.16;;;-0.45;100.00
13209;BME280;6669;42.678;23.332;2022-12-19T01:24:39;96262.78;;;-0.40;100.00
13209;BME280;6669;42.678;23.332;2022-12-19T01:27:08;96257.03;;;-0.45;100.00
13209;BME280;6669;42.678;23.332;2022-12-19T01:29:36;96272.63;;;-0.51;100.00
13209;BME280;6669;42.678;23.332;2022-12-19T01:32:18;96268.38;;;-0.73;100.00
13209;BME280;6669;42.678;23.332;2022-12-19T01:34:46;96276.13;;;-0.74;100.00
13209;BME280;6669;42.678;23.332;2022-12-19T01:37:14;96258.63;;;-0.84;100.00
13209;BME280;6669;42.678;23.332;2022-12-19T01:39:42;96253.97;;;-0.74;100.00
13209;BME280;6669;42.678;23.332;2022-12-19T01:42:15;96255.22;;;-0.84;100.00
13209;BME280;6669;42.678;23.332;2022-12-19T01:45:28;96260.22;;;-0.81;100.00
13209;BME280;6669;42.678;23.332;2022-12-19T01:48:13;96256.78;;;-0.80;100.00
13209;BME280;6669;42.678;23.332;2022-12-19T01:50:48;96257.59;;;-0.79;100.00
13209;BME280;6669;42.678;23.332;2022-12-19T01:53:34;96250.75;;;-0.79;100.00
13209;BME280;6669;42.678;23.332;2022-12-19T01:56:17;96246.31;;;-0.74;100.00
13209;BME280;6669;42.678;23.332;2022-12-19T01:58:49;96251.53;;;-0.77;100.00
13209;BME280;6669;42.678;23.332;2022-12-19T02:01:32;96235.63;;;-0.84;100.00
13209;BME280;6669;42.678;23.332;2022-12-19T02:04:03;96253.44;;;-0.82;100.00
13209;BME280;6669;42.678;23.332;2022-12-19T02:06:33;96250.13;;;-0.84;100.00
13209;BME280;6669;42.678;23.332;2022-12-19T02:09:02;96245.91;;;-0.85;100.00
13209;BME280;6669;42.678;23.332;2022-12-19T02:11:31;96251.34;;;-0.93;100.00
13209;BME280;6669;42.678;23.332;2022-12-19T02:14:01;96233.16;;;-1.07;100.00
13209;BME280;6669;42.678;23.332;2022-12-19T02:16:39;96246.56;;;-1.02;100.00
13209;BME280;6669;42.678;23.332;2022-12-19T02:22:23;96239.31;;;-0.91;100.00
13209;BME280;6669;42.678;23.332;2022-12-19T02:25:15;96245.13;;;-0.87;100.00
13209;BME280;6669;42.678;23.332;2022-12-19T02:28:08;96258.72;;;-0.87;100.00
13209;BME280;6669;42.678;23.332;2022-12-19T02:30:52;96258.94;;;-0.91;100.00
13209;BME280;6669;42.678;23.332;2022-12-19T02:33:31;96250.63;;;-0.96;100.00
13209;BME280;6669;42.678;23.332;2022-12-19T02:36:06;96270.44;;;-0.81;100.00
13209;BME280;6669;42.678;23.332;2022-12-19T02:38:39;96262.94;;;-0.86;100.00
13209;BME280;6669;42.678;23.332;2022-12-19T02:41:13;96260.59;;;-0.90;100.00
13209;BME280;6669;42.678;23.332;2022-12-19T02:43:48;96257.72;;;-0.83;100.00
13209;BME280;6669;42.678;23.332;2022-12-19T02:46:26;96258.69;;;-0.85;100.00
13209;BME280;6669;42.678;23.332;2022-12-19T02:48:55;96262.44;;;-0.94;100.00
13209;BME280;6669;42.678;23.332;2022-12-19T02:51:23;96262.75;;;-1.02;100.00
13209;BME280;6669;42.678;23.332;2022-12-19T02:53:51;96250.28;;;-1.09;100.00
13209;BME280;6669;42.678;23.332;2022-12-19T02:56:37;96253.47;;;-1.04;100.00
13209;BME280;6669;42.678;23.332;2022-12-19T02:59:15;96242.50;;;-1.06;100.00
13209;BME280;6669;42.678;23.332;2022-12-19T03:01:52;96248.81;;;-0.94;100.00
13209;BME280;6669;42.678;23.332;2022-12-19T03:04:31;96243.22;;;-0.82;100.00
13209;BME280;6669;42.678;23.332;2022-12-19T03:07:10;96241.13;;;-0.93;100.00
13209;BME280;6669;42.678;23.332;2022-12-19T03:09:45;96237.34;;;-0.84;100.00
13209;BME280;6669;42.678;23.332;2022-12-19T03:12:22;96225.59;;;-0.88;100.00
13209;BME280;6669;42.678;23.332;2022-12-19T03:14:52;96238.19;;;-0.84;100.00
13209;BME280;6669;42.678;23.332;2022-12-19T03:17:22;96237.94;;;-0.77;100.00
13209;BME280;6669;42.678;23.332;2022-12-19T03:19:51;96240.38;;;-0.74;100.00
13209;BME280;6669;42.678;23.332;2022-12-19T03:22:19;96235.19;;;-0.73;100.00
13209;BME280;6669;42.678;23.332;2022-12-19T03:24:47;96230.31;;;-0.79;100.00
13209;BME280;6669;42.678;23.332;2022-12-19T03:27:19;96249.63;;;-0.72;100.00
13209;BME280;6669;42.678;23.332;2022-12-19T03:29:53;96252.09;;;-0.70;100.00
13209;BME280;6669;42.678;23.332;2022-12-19T03:32:23;96226.31;;;-0.85;100.00
13209;BME280;6669;42.678;23.332;2022-12-19T03:34:56;96241.63;;;-0.85;100.00
13209;BME280;6669;42.678;23.332;2022-12-19T03:37:28;96255.59;;;-0.93;100.00
13209;BME280;6669;42.678;23.332;2022-12-19T03:40:00;96265.22;;;-1.00;100.00
13209;BME280;6669;42.678;23.332;2022-12-19T03:42:30;96275.19;;;-0.94;100.00
13209;BME280;6669;42.678;23.332;2022-12-19T03:45:22;96264.69;;;-1.08;100.00
13209;BME280;6669;42.678;23.332;2022-12-19T03:47:57;96262.31;;;-1.13;100.00
13209;BME280;6669;42.678;23.332;2022-12-19T03:50:30;96247.34;;;-1.22;100.00
13209;BME280;6669;42.678;23.332;2022-12-19T03:53:12;96269.19;;;-1.15;100.00
13209;BME280;6669;42.678;23.332;2022-12-19T03:55:47;96277.81;;;-1.18;100.00
13209;BME280;6669;42.678;23.332;2022-12-19T03:58:19;96269.44;;;-1.21;100.00
13209;BME280;6669;42.678;23.332;2022-12-19T04:00:52;96273.56;;;-1.17;100.00
13209;BME280;6669;42.678;23.332;2022-12-19T04:03:23;96274.00;;;-1.29;100.00
13209;BME280;6669;42.678;23.332;2022-12-19T04:05:52;96285.88;;;-1.28;100.00
13209;BME280;6669;42.678;23.332;2022-12-19T04:08:23;96291.09;;;-1.32;100.00
13209;BME280;6669;42.678;23.332;2022-12-19T04:10:54;96285.31;;;-1.37;100.00
13209;BME280;6669;42.678;23.332;2022-12-19T04:13:26;96290.63;;;-1.19;100.00
13209;BME280;6669;42.678;23.332;2022-12-19T04:16:01;96300.25;;;-1.04;100.00
13209;BME280;6669;42.678;23.332;2022-12-19T04:18:34;96300.59;;;-1.13;100.00
13209;BME280;6669;42.678;23.332;2022-12-19T04:21:09;96305.06;;;-1.18;100.00
13209;BME280;6669;42.678;23.332;2022-12-19T04:23:42;96313.81;;;-1.25;100.00
13209;BME280;6669;42.678;23.332;2022-12-19T04:26:15;96316.50;;;-1.28;100.00
13209;BME280;6669;42.678;23.332;2022-12-19T04:28:47;96313.50;;;-1.40;100.00
13209;BME280;6669;42.678;23.332;2022-12-19T04:31:17;96301.81;;;-1.45;100.00
13209;BME280;6669;42.678;23.332;2022-12-19T04:33:47;96296.25;;;-1.33;100.00
13209;BME280;6669;42.678;23.332;2022-12-19T04:36:15;96296.13;;;-1.30;100.00
13209;BME280;6669;42.678;23.332;2022-12-19T04:38:44;96290.03;;;-1.26;100.00
13209;BME280;6669;42.678;23.332;2022-12-19T04:41:12;96292.75;;;-1.30;100.00
13209;BME280;6669;42.678;23.332;2022-12-19T04:43:40;96297.63;;;-1.24;100.00
13209;BME280;6669;42.678;23.332;2022-12-19T04:46:08;96306.53;;;-1.12;100.00
13209;BME280;6669;42.678;23.332;2022-12-19T04:48:36;96288.00;;;-1.18;100.00
13209;BME280;6669;42.678;23.332;2022-12-19T04:51:06;96308.19;;;-1.11;100.00
13209;BME280;6669;42.678;23.332;2022-12-19T04:53:34;96309.50;;;-1.01;100.00
13209;BME280;6669;42.678;23.332;2022-12-19T04:56:04;96307.72;;;-0.99;100.00
13209;BME280;6669;42.678;23.332;2022-12-19T04:58:32;96315.56;;;-1.04;100.00
13209;BME280;6669;42.678;23.332;2022-12-19T05:01:07;96319.13;;;-1.08;100.00
13209;BME280;6669;42.678;23.332;2022-12-19T05:03:38;96306.81;;;-1.20;100.00
13209;BME280;6669;42.678;23.332;2022-12-19T05:06:10;96320.38;;;-1.18;100.00
13209;BME280;6669;42.678;23.332;2022-12-19T05:08:40;96311.41;;;-1.28;100.00
13209;BME280;6669;42.678;23.332;2022-12-19T05:11:10;96318.94;;;-1.25;100.00
13209;BME280;6669;42.678;23.332;2022-12-19T05:13:45;96319.81;;;-1.26;100.00
13209;BME280;6669;42.678;23.332;2022-12-19T05:16:13;96321.31;;;-1.21;100.00
13209;BME280;6669;42.678;23.332;2022-12-19T05:18:42;96306.03;;;-1.22;100.00
13209;BME280;6669;42.678;23.332;2022-12-19T05:21:12;96301.88;;;-1.25;100.00
13209;BME280;6669;42.678;23.332;2022-12-19T05:23:40;96326.84;;;-1.09;100.00
13209;BME280;6669;42.678;23.332;2022-12-19T05:26:10;96322.69;;;-1.12;100.00
13209;BME280;6669;42.678;23.332;2022-12-19T05:28:39;96326.72;;;-1.06;100.00
13209;BME280;6669;42.678;23.332;2022-12-19T05:31:09;96323.28;;;-1.05;100.00
13209;BME280;6669;42.678;23.332;2022-12-19T05:33:39;96324.16;;;-1.06;100.00
13209;BME280;6669;42.678;23.332;2022-12-19T05:36:08;96314.47;;;-1.20;100.00
13209;BME280;6669;42.678;23.332;2022-12-19T05:38:37;96338.75;;;-1.10;100.00
13209;BME280;6669;42.678;23.332;2022-12-19T05:41:06;96331.69;;;-1.25;100.00
13209;BME280;6669;42.678;23.332;2022-12-19T05:43:35;96336.66;;;-1.22;100.00
13209;BME280;6669;42.678;23.332;2022-12-19T05:46:03;96319.06;;;-1.28;100.00
13209;BME280;6669;42.678;23.332;2022-12-19T05:48:32;96325.28;;;-1.13;100.00
13209;BME280;6669;42.678;23.332;2022-12-19T05:51:00;96325.56;;;-1.21;100.00
13209;BME280;6669;42.678;23.332;2022-12-19T05:53:28;96330.16;;;-1.07;100.00
13209;BME280;6669;42.678;23.332;2022-12-19T05:56:08;96320.88;;;-1.10;100.00
13209;BME280;6669;42.678;23.332;2022-12-19T05:58:37;96343.56;;;-1.02;100.00
13209;BME280;6669;42.678;23.332;2022-12-19T06:01:07;96335.09;;;-1.03;100.00
13209;BME280;6669;42.678;23.332;2022-12-19T06:03:37;96341.19;;;-0.85;100.00
13209;BME280;6669;42.678;23.332;2022-12-19T06:06:16;96333.97;;;-0.73;100.00
13209;BME280;6669;42.678;23.332;2022-12-19T06:08:45;96347.19;;;-0.63;100.00
13209;BME280;6669;42.678;23.332;2022-12-19T06:11:19;96342.19;;;-0.67;100.00
13209;BME280;6669;42.678;23.332;2022-12-19T06:13:49;96338.25;;;-0.74;100.00
13209;BME280;6669;42.678;23.332;2022-12-19T06:16:19;96329.09;;;-0.57;100.00
13209;BME280;6669;42.678;23.332;2022-12-19T06:18:50;96353.16;;;-0.42;100.00
13209;BME280;6669;42.678;23.332;2022-12-19T06:21:20;96351.16;;;-0.34;100.00
13209;BME280;6669;42.678;23.332;2022-12-19T06:23:54;96356.00;;;-0.28;100.00
13209;BME280;6669;42.678;23.332;2022-12-19T06:26:26;96361.16;;;-0.29;100.00
13209;BME280;6669;42.678;23.332;2022-12-19T06:28:58;96354.28;;;-0.27;100.00
13209;BME280;6669;42.678;23.332;2022-12-19T06:31:29;96360.16;;;-0.25;100.00
13209;BME280;6669;42.678;23.332;2022-12-19T06:33:58;96344.28;;;-0.34;100.00
13209;BME280;6669;42.678;23.332;2022-12-19T06:36:28;96354.97;;;-0.24;100.00
13209;BME280;6669;42.678;23.332;2022-12-19T06:39:04;96371.13;;;-0.03;100.00
13209;BME280;6669;42.678;23.332;2022-12-19T06:41:56;96368.28;;;0.05;100.00
13209;BME280;6669;42.678;23.332;2022-12-19T06:44:42;96379.91;;;0.12;100.00
13209;BME280;6669;42.678;23.332;2022-12-19T06:47:12;96379.09;;;0.12;100.00
13209;BME280;6669;42.678;23.332;2022-12-19T06:49:44;96372.38;;;0.09;100.00
13209;BME280;6669;42.678;23.332;2022-12-19T06:52:28;96389.38;;;0.31;100.00
13209;BME280;6669;42.678;23.332;2022-12-19T06:55:24;96379.31;;;0.26;100.00
13209;BME280;6669;42.678;23.332;2022-12-19T06:57:57;96400.72;;;0.44;100.00
13209;BME280;6669;42.678;23.332;2022-12-19T07:00:53;96411.47;;;0.53;100.00
13209;BME280;6669;42.678;23.332;2022-12-19T07:03:49;96410.91;;;0.46;100.00
13209;BME280;6669;42.678;23.332;2022-12-19T07:06:45;96400.38;;;0.52;100.00
13209;BME280;6669;42.678;23.332;2022-12-19T07:09:15;96412.81;;;0.61;100.00
13209;BME280;6669;42.678;23.332;2022-12-19T07:11:58;96394.31;;;0.55;100.00
13209;BME280;6669;42.678;23.332;2022-12-19T07:14:46;96411.63;;;0.69;100.00
13209;BME280;6669;42.678;23.332;2022-12-19T07:17:28;96418.78;;;0.81;100.00
13209;BME280;6669;42.678;23.332;2022-12-19T07:19:58;96420.38;;;0.84;100.00
13209;BME280;6669;42.678;23.332;2022-12-19T07:22:30;96418.84;;;0.79;100.00
13209;BME280;6669;42.678;23.332;2022-12-19T07:25:14;96415.59;;;0.76;100.00
13209;BME280;6669;42.678;23.332;2022-12-19T07:27:56;96412.69;;;0.84;100.00
13209;BME280;6669;42.678;23.332;2022-12-19T07:30:26;96422.81;;;0.87;100.00
13209;BME280;6669;42.678;23.332;2022-12-19T07:32:56;96397.81;;;0.73;100.00
13209;BME280;6669;42.678;23.332;2022-12-19T07:35:27;96406.16;;;0.76;100.00
13209;BME280;6669;42.678;23.332;2022-12-19T07:38:09;96431.94;;;0.92;100.00
13209;BME280;6669;42.678;23.332;2022-12-19T07:40:42;96425.91;;;0.93;100.00
13209;BME280;6669;42.678;23.332;2022-12-19T07:43:11;96440.16;;;0.99;100.00
13209;BME280;6669;42.678;23.332;2022-12-19T07:45:42;96427.16;;;0.85;100.00
13209;BME280;6669;42.678;23.332;2022-12-19T07:48:11;96456.22;;;1.03;100.00
13209;BME280;6669;42.678;23.332;2022-12-19T07:50:57;96447.81;;;1.01;100.00
13209;BME280;6669;42.678;23.332;2022-12-19T07:53:43;96463.44;;;0.94;100.00
13209;BME280;6669;42.678;23.332;2022-12-19T07:56:13;96458.16;;;0.97;100.00
13209;BME280;6669;42.678;23.332;2022-12-19T07:58:58;96469.94;;;1.02;100.00
13209;BME280;6669;42.678;23.332;2022-12-19T08:01:58;96480.50;;;0.94;100.00
13209;BME280;6669;42.678;23.332;2022-12-19T08:04:41;96474.56;;;0.93;100.00
13209;BME280;6669;42.678;23.332;2022-12-19T08:07:19;96461.97;;;0.89;100.00
13209;BME280;6669;42.678;23.332;2022-12-19T08:10:15;96455.47;;;0.81;100.00
13209;BME280;6669;42.678;23.332;2022-12-19T08:12:53;96482.25;;;0.93;100.00
13209;BME280;6669;42.678;23.332;2022-12-19T08:15:22;96473.53;;;0.97;100.00
13209;BME280;6669;42.678;23.332;2022-12-19T08:18:22;96477.88;;;0.95;100.00
13209;BME280;6669;42.678;23.332;2022-12-19T08:21:18;96483.50;;;1.04;100.00
13209;BME280;6669;42.678;23.332;2022-12-19T08:23:47;96481.16;;;1.18;100.00
13209;BME280;6669;42.678;23.332;2022-12-19T08:26:31;96484.50;;;1.20;100.00
13209;BME280;6669;42.678;23.332;2022-12-19T08:29:14;96472.78;;;1.14;100.00
13209;BME280;6669;42.678;23.332;2022-12-19T08:32:09;96460.91;;;1.13;100.00
13209;BME280;6669;42.678;23.332;2022-12-19T08:34:49;96475.06;;;1.21;100.00
13209;BME280;6669;42.678;23.332;2022-12-19T08:37:23;96478.31;;;1.24;100.00
13209;BME280;6669;42.678;23.332;2022-12-19T08:39:59;96480.81;;;1.26;100.00
13209;BME280;6669;42.678;23.332;2022-12-19T08:42:29;96485.59;;;1.34;100.00
13209;BME280;6669;42.678;23.332;2022-12-19T08:45:26;96464.91;;;1.19;100.00
13209;BME280;6669;42.678;23.332;2022-12-19T08:47:55;96471.16;;;1.33;100.00
13209;BME280;6669;42.678;23.332;2022-12-19T08:50:31;96470.44;;;1.48;100.00
13209;BME280;6669;42.678;23.332;2022-12-19T08:53:17;96465.16;;;1.51;100.00
13209;BME280;6669;42.678;23.332;2022-12-19T08:55:53;96454.53;;;1.41;100.00
13209;BME280;6669;42.678;23.332;2022-12-19T08:58:40;96467.72;;;1.51;100.00
13209;BME280;6669;42.678;23.332;2022-12-19T09:01:17;96463.22;;;1.56;100.00
13209;BME280;6669;42.678;23.332;2022-12-19T09:03:47;96454.84;;;1.53;100.00
13209;BME280;6669;42.678;23.332;2022-12-19T09:06:59;96460.88;;;1.71;100.00
13209;BME280;6669;42.678;23.332;2022-12-19T09:09:33;96441.16;;;1.71;100.00
13209;BME280;6669;42.678;23.332;2022-12-19T09:12:17;96433.13;;;1.79;100.00
13209;BME280;6669;42.678;23.332;2022-12-19T09:15:03;96442.88;;;1.90;100.00
13209;BME280;6669;42.678;23.332;2022-12-19T09:17:50;96428.31;;;1.90;100.00
13209;BME280;6669;42.678;23.332;2022-12-19T09:20:20;96428.22;;;1.92;100.00
13209;BME280;6669;42.678;23.332;2022-12-19T09:23:10;96433.91;;;1.99;100.00
13209;BME280;6669;42.678;23.332;2022-12-19T09:25:39;96427.81;;;2.01;100.00
13209;BME280;6669;42.678;23.332;2022-12-19T09:28:22;96409.91;;;2.00;100.00
13209;BME280;6669;42.678;23.332;2022-12-19T09:30:54;96397.38;;;2.11;100.00
13209;BME280;6669;42.678;23.332;2022-12-19T09:33:46;96410.38;;;2.25;100.00
13209;BME280;6669;42.678;23.332;2022-12-19T09:36:17;96398.47;;;2.40;100.00
13209;BME280;6669;42.678;23.332;2022-12-19T09:38:52;96398.44;;;2.42;100.00
13209;BME280;6669;42.678;23.332;2022-12-19T09:41:36;96398.44;;;2.42;100.00
13209;BME280;6669;42.678;23.332;2022-12-19T09:44:23;96382.75;;;2.31;100.00
13209;BME280;6669;42.678;23.332;2022-12-19T09:47:00;96388.06;;;2.43;100.00
13209;BME280;6669;42.678;23.332;2022-12-19T09:49:33;96388.59;;;2.50;100.00
13209;BME280;6669;42.678;23.332;2022-12-19T09:52:26;96391.97;;;2.51;100.00
13209;BME280;6669;42.678;23.332;2022-12-19T09:55:27;96378.16;;;2.53;100.00
13209;BME280;6669;42.678;23.332;2022-12-19T09:58:12;96377.13;;;2.40;100.00
13209;BME280;6669;42.678;23.332;2022-12-19T10:01:05;96387.22;;;2.43;100.00
13209;BME280;6669;42.678;23.332;2022-12-19T10:03:40;96379.13;;;2.51;100.00
13209;BME280;6669;42.678;23.332;2022-12-19T10:06:16;96373.63;;;2.58;100.00
13209;BME280;6669;42.678;23.332;2022-12-19T10:09:15;96381.84;;;2.65;100.00
13209;BME280;6669;42.678;23.332;2022-12-19T10:12:20;96354.59;;;2.63;100.00
13209;BME280;6669;42.678;23.332;2022-12-19T10:15:14;96365.84;;;2.76;100.00
13209;BME280;6669;42.678;23.332;2022-12-19T10:18:15;96353.19;;;2.73;100.00
13209;BME280;6669;42.678;23.332;2022-12-19T10:21:01;96358.19;;;2.92;100.00
13209;BME280;6669;42.678;23.332;2022-12-19T10:23:55;96349.88;;;3.03;100.00
13209;BME280;6669;42.678;23.332;2022-12-19T10:26:33;96332.84;;;3.02;100.00
13209;BME280;6669;42.678;23.332;2022-12-19T10:29:29;96336.44;;;3.30;100.00
13209;BME280;6669;42.678;23.332;2022-12-19T10:32:08;96328.91;;;3.26;100.00
13209;BME280;6669;42.678;23.332;2022-12-19T10:35:11;96342.34;;;3.32;100.00
13209;BME280;6669;42.678;23.332;2022-12-19T10:37:47;96345.09;;;3.29;100.00
13209;BME280;6669;42.678;23.332;2022-12-19T10:40:27;96325.94;;;3.18;100.00
13209;BME280;6669;42.678;23.332;2022-12-19T10:43:03;96336.44;;;3.30;100.00
13209;BME280;6669;42.678;23.332;2022-12-19T10:46:10;96310.00;;;3.27;100.00
13209;BME280;6669;42.678;23.332;2022-12-19T10:49:09;96327.19;;;3.57;100.00
13209;BME280;6669;42.678;23.332;2022-12-19T10:51:57;96320.31;;;3.58;100.00
13209;BME280;6669;42.678;23.332;2022-12-19T10:54:37;96293.31;;;3.65;100.00
13209;BME280;6669;42.678;23.332;2022-12-19T10:57:28;96319.75;;;3.83;100.00
13209;BME280;6669;42.678;23.332;2022-12-19T11:00:25;96308.63;;;3.83;100.00
13209;BME280;6669;42.678;23.332;2022-12-19T11:03:21;96298.97;;;3.72;100.00
13209;BME280;6669;42.678;23.332;2022-12-19T11:05:59;96312.19;;;3.80;100.00
13209;BME280;6669;42.678;23.332;2022-12-19T11:08:42;96308.97;;;3.76;100.00
13209;BME280;6669;42.678;23.332;2022-12-19T11:11:34;96325.59;;;3.71;100.00
13209;BME280;6669;42.678;23.332;2022-12-19T11:14:27;96319.13;;;3.64;100.00
13209;BME280;6669;42.678;23.332;2022-12-19T11:17:26;96321.19;;;3.42;100.00
13209;BME280;6669;42.678;23.332;2022-12-19T11:20:36;96307.44;;;3.27;100.00
13209;BME280;6669;42.678;23.332;2022-12-19T11:23:26;96297.56;;;3.36;100.00
13209;BME280;6669;42.678;23.332;2022-12-19T11:26:26;96294.47;;;3.45;100.00
13209;BME280;6669;42.678;23.332;2022-12-19T11:29:20;96288.03;;;3.38;100.00
13209;BME280;6669;42.678;23.332;2022-12-19T11:32:31;96296.13;;;3.46;100.00
13209;BME280;6669;42.678;23.332;2022-12-19T11:35:17;96294.72;;;3.56;100.00
13209;BME280;6669;42.678;23.332;2022-12-19T11:38:05;96293.06;;;3.39;100.00
13209;BME280;6669;42.678;23.332;2022-12-19T11:40:47;96306.72;;;3.56;100.00
13209;BME280;6669;42.678;23.332;2022-12-19T11:43:30;96278.13;;;3.46;100.00
13209;BME280;6669;42.678;23.332;2022-12-19T11:46:35;96303.91;;;3.60;100.00
13209;BME280;6669;42.678;23.332;2022-12-19T11:49:10;96283.25;;;3.46;100.00
13209;BME280;6669;42.678;23.332;2022-12-19T11:51:51;96299.00;;;3.56;100.00
13209;BME280;6669;42.678;23.332;2022-12-19T11:54:30;96302.13;;;3.61;100.00
13209;BME280;6669;42.678;23.332;2022-12-19T11:57:07;96301.81;;;3.51;100.00
13209;BME280;6669;42.678;23.332;2022-12-19T12:00:11;96303.91;;;3.60;100.00
13209;BME280;6669;42.678;23.332;2022-12-19T12:03:14;96300.66;;;3.57;100.00
13209;BME280;6669;42.678;23.332;2022-12-19T12:05:51;96293.28;;;3.51;100.00
13209;BME280;6669;42.678;23.332;2022-12-19T12:08:51;96302.81;;;3.49;100.00
13209;BME280;6669;42.678;23.332;2022-12-19T12:19:15;96309.38;;;3.54;100.00
13209;BME280;6669;42.678;23.332;2022-12-19T12:22:21;96296.22;;;3.44;100.00
13209;BME280;6669;42.678;23.332;2022-12-19T12:25:41;96297.31;;;3.40;100.00
13209;BME280;6669;42.678;23.332;2022-12-19T12:29:07;96290.94;;;3.32;100.00
13209;BME280;6669;42.678;23.332;2022-12-19T12:32:09;96301.41;;;3.29;100.00
13209;BME280;6669;42.678;23.332;2022-12-19T12:35:16;96306.00;;;3.38;100.00
13209;BME280;6669;42.678;23.332;2022-12-19T12:38:30;96280.00;;;3.28;100.00
13209;BME280;6669;42.678;23.332;2022-12-19T12:41:22;96288.38;;;3.32;100.00
13209;BME280;6669;42.678;23.332;2022-12-19T12:44:11;96297.97;;;3.28;100.00
13209;BME280;6669;42.678;23.332;2022-12-19T12:47:03;96294.06;;;3.37;100.00
13209;BME280;6669;42.678;23.332;2022-12-19T12:49:38;96297.31;;;3.40;100.00
13209;BME280;6669;42.678;23.332;2022-12-19T12:52:14;96308.97;;;3.46;100.00
13209;BME280;6669;42.678;23.332;2022-12-19T12:54:52;96304.00;;;3.43;100.00
13209;BME280;6669;42.678;23.332;2022-12-19T12:57:33;96290.25;;;3.44;100.00
13209;BME280;6669;42.678;23.332;2022-12-19T13:00:22;96287.16;;;3.53;100.00
13209;BME280;6669;42.678;23.332;2022-12-19T13:03:10;96288.25;;;3.49;100.00
13209;BME280;6669;42.678;23.332;2022-12-19T13:05:52;96286.59;;;3.48;100.00
13209;BME280;6669;42.678;23.332;2022-12-19T13:11:38;96310.50;;;3.65;100.00
13209;BME280;6669;42.678;23.332;2022-12-19T13:14:46;96295.31;;;3.30;100.00
13209;BME280;6669;42.678;23.332;2022-12-19T13:17:58;96307.59;;;3.40;100.00
13209;BME280;6669;42.678;23.332;2022-12-19T13:20:41;96303.25;;;3.41;100.00
13209;BME280;6669;42.678;23.332;2022-12-19T13:23:23;96316.47;;;3.35;100.00
13209;BME280;6669;42.678;23.332;2022-12-19T13:26:47;96324.75;;;3.40;100.00
13209;BME280;6669;42.678;23.332;2022-12-19T13:29:50;96334.03;;;3.42;100.00
13209;BME280;6669;42.678;23.332;2022-12-19T13:32:22;96334.81;;;3.29;100.00
13209;BME280;6669;42.678;23.332;2022-12-19T13:35:30;96336.44;;;3.30;100.00
13209;BME280;6669;42.678;23.332;2022-12-19T13:38:21;96334.56;;;3.17;100.00
13209;BME280;6669;42.678;23.332;2022-12-19T13:41:25;96345.19;;;3.11;100.00
13209;BME280;6669;42.678;23.332;2022-12-19T13:44:40;96318.00;;;2.91;100.00
13209;BME280;6669;42.678;23.332;2022-12-19T13:47:31;96342.59;;;3.11;100.00
13209;BME280;6669;42.678;23.332;2022-12-19T13:50:21;96321.91;;;2.98;100.00
13209;BME280;6669;42.678;23.332;2022-12-19T13:53:23;96318.75;;;2.93;100.00
13209;BME280;6669;42.678;23.332;2022-12-19T13:56:11;96340.19;;;3.08;100.00
13209;BME280;6669;42.678;23.332;2022-12-19T13:58:45;96329.00;;;3.09;100.00
13209;BME280;6669;42.678;23.332;2022-12-19T14:01:35;96345.84;;;3.15;100.00
13209;BME280;6669;42.678;23.332;2022-12-19T14:04:26;96321.72;;;3.01;100.00
13209;BME280;6669;42.678;23.332;2022-12-19T14:07:00;96348.75;;;3.08;100.00
13209;BME280;6669;42.678;23.332;2022-12-19T14:09:54;96337.31;;;2.98;100.00
13209;BME280;6669;42.678;23.332;2022-12-19T14:12:45;96334.88;;;2.95;100.00
13209;BME280;6669;42.678;23.332;2022-12-19T14:15:57;96349.72;;;2.90;100.00